sensor_id;sensor_type;location;lat;lon;timestamp;temperature;humidity
45765;DHT22;31474;45.332;10.230;2023-06-22T00:00:53;26.70;98.60
45765;DHT22;31474;45.332;10.230;2023-06-22T00:03:20;26.70;99.00
45765;DHT22;31474;45.332;10.230;2023-06-22T00:05:46;26.70;98.70
45765;DHT22;31474;45.332;10.230;2023-06-22T00:08:13;26.70;99.00
45765;DHT22;31474;45.332;10.230;2023-06-22T00:10:39;26.70;99.10
45765;DHT22;31474;45.332;10.230;2023-06-22T00:13:06;26.70;99.10
45765;DHT22;31474;45.332;10.230;2023-06-22T00:15:32;26.70;99.10
45765;DHT22;31474;45.332;10.230;2023-06-22T00:17:58;26.60;99.00
45765;DHT22;31474;45.332;10.230;2023-06-22T00:20:25;26.60;99.00
45765;DHT22;31474;45.332;10.230;2023-06-22T00:22:57;26.50;99.10
45765;DHT22;31474;45.332;10.230;2023-06-22T00:25:23;26.50;99.50
45765;DHT22;31474;45.332;10.230;2023-06-22T00:27:49;26.40;99.30
45765;DHT22;31474;45.332;10.230;2023-06-22T00:30:16;26.40;99.30
45765;DHT22;31474;45.332;10.230;2023-06-22T00:32:42;26.30;99.70
45765;DHT22;31474;45.332;10.230;2023-06-22T00:35:08;26.30;99.50
45765;DHT22;31474;45.332;10.230;2023-06-22T00:37:35;26.30;99.60
45765;DHT22;31474;45.332;10.230;2023-06-22T00:40:02;26.20;99.50
45765;DHT22;31474;45.332;10.230;2023-06-22T00:42:28;26.30;99.70
45765;DHT22;31474;45.332;10.230;2023-06-22T00:44:53;26.20;99.20
45765;DHT22;31474;45.332;10.230;2023-06-22T00:47:19;26.20;98.80
45765;DHT22;31474;45.332;10.230;2023-06-22T00:49:49;26.10;98.60
45765;DHT22;31474;45.332;10.230;2023-06-22T00:52:17;26.10;98.60
45765;DHT22;31474;45.332;10.230;2023-06-22T00:54:50;26.10;98.60
45765;DHT22;31474;45.332;10.230;2023-06-22T00:57:17;26.10;98.70
45765;DHT22;31474;45.332;10.230;2023-06-22T00:59:44;26.10;98.80
45765;DHT22;31474;45.332;10.230;2023-06-22T01:02:10;26.10;98.80
45765;DHT22;31474;45.332;10.230;2023-06-22T01:04:38;26.10;99.00
45765;DHT22;31474;45.332;10.230;2023-06-22T01:10:16;26.00;99.90
45765;DHT22;31474;45.332;10.230;2023-06-22T01:12:49;26.00;99.90
45765;DHT22;31474;45.332;10.230;2023-06-22T01:15:34;25.90;99.80
45765;DHT22;31474;45.332;10.230;2023-06-22T01:18:04;25.90;99.90
45765;DHT22;31474;45.332;10.230;2023-06-22T01:20:31;25.90;99.70
45765;DHT22;31474;45.332;10.230;2023-06-22T01:23:05;25.90;99.60
45765;DHT22;31474;45.332;10.230;2023-06-22T01:25:45;25.90;99.90
45765;DHT22;31474;45.332;10.230;2023-06-22T01:28:49;25.80;99.80
45765;DHT22;31474;45.332;10.230;2023-06-22T01:31:21;25.80;99.90
45765;DHT22;31474;45.332;10.230;2023-06-22T01:33:53;25.80;99.50
45765;DHT22;31474;45.332;10.230;2023-06-22T01:36:19;25.80;99.40
45765;DHT22;31474;45.332;10.230;2023-06-22T01:38:47;25.80;99.20
45765;DHT22;31474;45.332;10.230;2023-06-22T01:41:13;25.80;99.30
45765;DHT22;31474;45.332;10.230;2023-06-22T01:43:40;25.80;99.30
45765;DHT22;31474;45.332;10.230;2023-06-22T01:46:07;25.90;99.40
45765;DHT22;31474;45.332;10.230;2023-06-22T01:48:33;25.80;99.40
45765;DHT22;31474;45.332;10.230;2023-06-22T01:50:59;25.80;99.30
45765;DHT22;31474;45.332;10.230;2023-06-22T01:53:25;25.80;99.40
45765;DHT22;31474;45.332;10.230;2023-06-22T01:55:52;25.80;99.30
45765;DHT22;31474;45.332;10.230;2023-06-22T01:58:20;25.80;99.20
45765;DHT22;31474;45.332;10.230;2023-06-22T02:00:56;25.80;99.20
45765;DHT22;31474;45.332;10.230;2023-06-22T02:03:30;25.70;99.70
45765;DHT22;31474;45.332;10.230;2023-06-22T02:06:03;25.60;99.50
45765;DHT22;31474;45.332;10.230;2023-06-22T02:08:33;25.60;99.60
45765;DHT22;31474;45.332;10.230;2023-06-22T02:11:02;25.70;99.30
45765;DHT22;31474;45.332;10.230;2023-06-22T02:13:28;25.60;99.20
45765;DHT22;31474;45.332;10.230;2023-06-22T02:15:55;25.60;99.10
45765;DHT22;31474;45.332;10.230;2023-06-22T02:18:21;25.50;99.00
45765;DHT22;31474;45.332;10.230;2023-06-22T02:20:46;25.30;99.20
45765;DHT22;31474;45.332;10.230;2023-06-22T02:23:12;25.30;99.20
45765;DHT22;31474;45.332;10.230;2023-06-22T02:25:38;25.30;99.20
45765;DHT22;31474;45.332;10.230;2023-06-22T02:28:04;25.30;99.50
45765;DHT22;31474;45.332;10.230;2023-06-22T02:30:29;25.30;99.40
45765;DHT22;31474;45.332;10.230;2023-06-22T02:32:55;25.30;99.90
45765;DHT22;31474;45.332;10.230;2023-06-22T02:35:28;25.20;99.70
45765;DHT22;31474;45.332;10.230;2023-06-22T02:38:00;25.20;99.90
45765;DHT22;31474;45.332;10.230;2023-06-22T02:40:26;25.20;99.90
45765;DHT22;31474;45.332;10.230;2023-06-22T02:42:52;25.20;99.80
45765;DHT22;31474;45.332;10.230;2023-06-22T02:45:17;25.20;99.70
45765;DHT22;31474;45.332;10.230;2023-06-22T02:47:43;25.30;99.70
45765;DHT22;31474;45.332;10.230;2023-06-22T02:50:10;25.30;99.90
45765;DHT22;31474;45.332;10.230;2023-06-22T02:52:35;25.30;99.60
45765;DHT22;31474;45.332;10.230;2023-06-22T02:55:01;25.40;99.70
45765;DHT22;31474;45.332;10.230;2023-06-22T02:57:27;25.40;99.70
45765;DHT22;31474;45.332;10.230;2023-06-22T02:59:52;25.50;99.80
45765;DHT22;31474;45.332;10.230;2023-06-22T03:02:18;25.50;99.70
45765;DHT22;31474;45.332;10.230;2023-06-22T03:04:47;25.50;99.70
45765;DHT22;31474;45.332;10.230;2023-06-22T03:07:15;25.50;99.80
45765;DHT22;31474;45.332;10.230;2023-06-22T03:09:42;25.50;99.70
45765;DHT22;31474;45.332;10.230;2023-06-22T03:12:08;25.50;99.70
45765;DHT22;31474;45.332;10.230;2023-06-22T03:14:34;25.40;99.80
45765;DHT22;31474;45.332;10.230;2023-06-22T03:17:00;25.40;99.80
45765;DHT22;31474;45.332;10.230;2023-06-22T03:19:29;25.50;99.90
45765;DHT22;31474;45.332;10.230;2023-06-22T03:21:57;25.40;99.90
45765;DHT22;31474;45.332;10.230;2023-06-22T03:24:23;25.30;99.90
45765;DHT22;31474;45.332;10.230;2023-06-22T03:26:48;25.30;99.90
45765;DHT22;31474;45.332;10.230;2023-06-22T03:29:14;25.30;99.90
45765;DHT22;31474;45.332;10.230;2023-06-22T03:31:41;25.30;99.90
45765;DHT22;31474;45.332;10.230;2023-06-22T03:34:06;25.30;99.90
45765;DHT22;31474;45.332;10.230;2023-06-22T03:36:32;25.30;99.90
45765;DHT22;31474;45.332;10.230;2023-06-22T03:38:58;25.20;99.90
45765;DHT22;31474;45.332;10.230;2023-06-22T03:41:23;25.30;99.90
45765;DHT22;31474;45.332;10.230;2023-06-22T03:43:49;25.30;99.90
45765;DHT22;31474;45.332;10.230;2023-06-22T03:46:15;25.30;99.90
45765;DHT22;31474;45.332;10.230;2023-06-22T03:48:41;25.20;99.90
45765;DHT22;31474;45.332;10.230;2023-06-22T03:51:06;25.20;99.90
45765;DHT22;31474;45.332;10.230;2023-06-22T03:53:32;25.20;99.90
45765;DHT22;31474;45.332;10.230;2023-06-22T03:55:57;25.30;99.90
45765;DHT22;31474;45.332;10.230;2023-06-22T03:58:23;25.30;99.90
45765;DHT22;31474;45.332;10.230;2023-06-22T04:00:50;25.20;99.90
45765;DHT22;31474;45.332;10.230;2023-06-22T04:03:17;25.30;99.90
45765;DHT22;31474;45.332;10.230;2023-06-22T04:05:46;25.30;99.90
45765;DHT22;31474;45.332;10.230;2023-06-22T04:08:13;25.30;99.90
45765;DHT22;31474;45.332;10.230;2023-06-22T04:10:39;25.30;99.90
45765;DHT22;31474;45.332;10.230;2023-06-22T04:13:04;25.30;99.90
45765;DHT22;31474;45.332;10.230;2023-06-22T04:15:30;25.30;99.90
45765;DHT22;31474;45.332;10.230;2023-06-22T04:17:56;25.50;99.90
45765;DHT22;31474;45.332;10.230;2023-06-22T04:20:23;25.50;99.90
45765;DHT22;31474;45.332;10.230;2023-06-22T04:22:54;25.50;99.90
45765;DHT22;31474;45.332;10.230;2023-06-22T04:25:20;25.40;99.90
45765;DHT22;31474;45.332;10.230;2023-06-22T04:27:46;25.50;99.90
45765;DHT22;31474;45.332;10.230;2023-06-22T04:30:12;25.50;99.90
45765;DHT22;31474;45.332;10.230;2023-06-22T04:32:40;25.50;99.90
45765;DHT22;31474;45.332;10.230;2023-06-22T04:35:06;25.50;99.90
45765;DHT22;31474;45.332;10.230;2023-06-22T04:37:33;25.40;99.90
45765;DHT22;31474;45.332;10.230;2023-06-22T04:39:59;25.40;99.90
45765;DHT22;31474;45.332;10.230;2023-06-22T04:42:27;25.50;99.90
45765;DHT22;31474;45.332;10.230;2023-06-22T04:44:53;25.60;99.90
45765;DHT22;31474;45.332;10.230;2023-06-22T04:47:19;25.50;99.90
45765;DHT22;31474;45.332;10.230;2023-06-22T04:49:45;25.60;99.90
45765;DHT22;31474;45.332;10.230;2023-06-22T04:52:12;25.70;99.90
45765;DHT22;31474;45.332;10.230;2023-06-22T04:54:39;25.80;99.90
45765;DHT22;31474;45.332;10.230;2023-06-22T04:57:13;25.90;99.90
45765;DHT22;31474;45.332;10.230;2023-06-22T04:59:40;25.90;99.90
45765;DHT22;31474;45.332;10.230;2023-06-22T05:02:07;26.10;99.90
45765;DHT22;31474;45.332;10.230;2023-06-22T05:04:33;26.20;99.90
45765;DHT22;31474;45.332;10.230;2023-06-22T05:07:02;26.30;99.90
45765;DHT22;31474;45.332;10.230;2023-06-22T05:09:28;26.30;99.90
45765;DHT22;31474;45.332;10.230;2023-06-22T05:11:54;26.40;99.90
45765;DHT22;31474;45.332;10.230;2023-06-22T05:14:20;26.40;99.90
45765;DHT22;31474;45.332;10.230;2023-06-22T05:16:45;26.50;99.90
45765;DHT22;31474;45.332;10.230;2023-06-22T05:19:11;26.50;99.90
45765;DHT22;31474;45.332;10.230;2023-06-22T05:21:38;26.50;99.90
45765;DHT22;31474;45.332;10.230;2023-06-22T05:24:04;26.50;99.90
45765;DHT22;31474;45.332;10.230;2023-06-22T05:26:30;26.60;99.90
45765;DHT22;31474;45.332;10.230;2023-06-22T05:28:56;26.60;99.80
45765;DHT22;31474;45.332;10.230;2023-06-22T05:31:22;26.60;99.90
45765;DHT22;31474;45.332;10.230;2023-06-22T05:33:50;26.70;99.90
45765;DHT22;31474;45.332;10.230;2023-06-22T05:36:16;26.70;99.90
45765;DHT22;31474;45.332;10.230;2023-06-22T05:38:42;26.80;99.80
45765;DHT22;31474;45.332;10.230;2023-06-22T05:41:08;26.80;99.80
45765;DHT22;31474;45.332;10.230;2023-06-22T05:43:34;26.90;99.90
45765;DHT22;31474;45.332;10.230;2023-06-22T05:46:01;27.00;99.90
45765;DHT22;31474;45.332;10.230;2023-06-22T05:48:27;27.10;99.90
45765;DHT22;31474;45.332;10.230;2023-06-22T05:50:53;27.20;99.90
45765;DHT22;31474;45.332;10.230;2023-06-22T05:53:19;27.30;99.80
45765;DHT22;31474;45.332;10.230;2023-06-22T05:55:45;27.40;99.60
45765;DHT22;31474;45.332;10.230;2023-06-22T05:58:11;27.60;99.40
45765;DHT22;31474;45.332;10.230;2023-06-22T06:00:36;27.80;99.10
45765;DHT22;31474;45.332;10.230;2023-06-22T06:03:02;28.00;98.90
45765;DHT22;31474;45.332;10.230;2023-06-22T06:05:32;28.10;98.70
45765;DHT22;31474;45.332;10.230;2023-06-22T06:07:59;28.30;98.00
45765;DHT22;31474;45.332;10.230;2023-06-22T06:10:26;28.30;97.40
45765;DHT22;31474;45.332;10.230;2023-06-22T06:12:52;28.30;97.10
45765;DHT22;31474;45.332;10.230;2023-06-22T06:15:17;28.30;97.30
45765;DHT22;31474;45.332;10.230;2023-06-22T06:17:52;28.40;97.30
45765;DHT22;31474;45.332;10.230;2023-06-22T06:20:22;28.50;97.20
45765;DHT22;31474;45.332;10.230;2023-06-22T06:22:49;28.40;97.30
45765;DHT22;31474;45.332;10.230;2023-06-22T06:25:15;28.40;97.30
45765;DHT22;31474;45.332;10.230;2023-06-22T06:27:49;28.40;97.20
45765;DHT22;31474;45.332;10.230;2023-06-22T06:30:16;28.60;97.50
45765;DHT22;31474;45.332;10.230;2023-06-22T06:32:44;28.70;97.00
45765;DHT22;31474;45.332;10.230;2023-06-22T06:35:11;28.60;96.80
45765;DHT22;31474;45.332;10.230;2023-06-22T06:37:40;28.80;97.10
45765;DHT22;31474;45.332;10.230;2023-06-22T06:40:07;28.80;96.10
45765;DHT22;31474;45.332;10.230;2023-06-22T06:42:54;28.80;96.30
45765;DHT22;31474;45.332;10.230;2023-06-22T06:45:23;29.00;97.00
45765;DHT22;31474;45.332;10.230;2023-06-22T06:47:50;29.10;96.80
45765;DHT22;31474;45.332;10.230;2023-06-22T06:50:16;29.30;96.70
45765;DHT22;31474;45.332;10.230;2023-06-22T06:52:42;29.30;96.70
45765;DHT22;31474;45.332;10.230;2023-06-22T06:55:09;29.30;95.70
45765;DHT22;31474;45.332;10.230;2023-06-22T06:57:39;29.40;95.50
45765;DHT22;31474;45.332;10.230;2023-06-22T07:00:06;29.60;96.00
45765;DHT22;31474;45.332;10.230;2023-06-22T07:02:35;29.70;95.40
45765;DHT22;31474;45.332;10.230;2023-06-22T07:05:00;29.90;95.70
45765;DHT22;31474;45.332;10.230;2023-06-22T07:07:30;29.90;94.50
45765;DHT22;31474;45.332;10.230;2023-06-22T07:09:55;29.90;95.10
45765;DHT22;31474;45.332;10.230;2023-06-22T07:12:21;30.00;95.40
45765;DHT22;31474;45.332;10.230;2023-06-22T07:14:47;30.20;95.60
45765;DHT22;31474;45.332;10.230;2023-06-22T07:17:12;30.30;95.00
45765;DHT22;31474;45.332;10.230;2023-06-22T07:19:38;30.30;95.20
45765;DHT22;31474;45.332;10.230;2023-06-22T07:22:04;30.50;95.20
45765;DHT22;31474;45.332;10.230;2023-06-22T07:24:30;30.60;94.80
45765;DHT22;31474;45.332;10.230;2023-06-22T07:26:56;30.60;94.80
45765;DHT22;31474;45.332;10.230;2023-06-22T07:29:23;30.80;94.70
45765;DHT22;31474;45.332;10.230;2023-06-22T07:31:49;31.00;94.50
45765;DHT22;31474;45.332;10.230;2023-06-22T07:34:16;31.00;94.80
45765;DHT22;31474;45.332;10.230;2023-06-22T07:36:43;31.20;94.40
45765;DHT22;31474;45.332;10.230;2023-06-22T07:39:08;31.30;94.10
45765;DHT22;31474;45.332;10.230;2023-06-22T07:41:34;31.50;93.90
45765;DHT22;31474;45.332;10.230;2023-06-22T07:44:00;31.50;93.60
45765;DHT22;31474;45.332;10.230;2023-06-22T07:46:26;31.60;93.90
45765;DHT22;31474;45.332;10.230;2023-06-22T07:48:51;31.50;94.40
45765;DHT22;31474;45.332;10.230;2023-06-22T07:51:17;31.60;94.80
45765;DHT22;31474;45.332;10.230;2023-06-22T07:53:43;31.70;94.90
45765;DHT22;31474;45.332;10.230;2023-06-22T07:56:13;31.70;94.90
45765;DHT22;31474;45.332;10.230;2023-06-22T07:58:39;31.80;95.50
45765;DHT22;31474;45.332;10.230;2023-06-22T08:01:05;31.80;94.10
45765;DHT22;31474;45.332;10.230;2023-06-22T08:03:32;32.00;94.50
45765;DHT22;31474;45.332;10.230;2023-06-22T08:05:57;32.00;94.20
45765;DHT22;31474;45.332;10.230;2023-06-22T08:08:23;31.80;94.30
45765;DHT22;31474;45.332;10.230;2023-06-22T08:10:49;31.80;94.30
45765;DHT22;31474;45.332;10.230;2023-06-22T08:13:15;31.90;94.60
45765;DHT22;31474;45.332;10.230;2023-06-22T08:15:40;32.00;94.40
45765;DHT22;31474;45.332;10.230;2023-06-22T08:18:06;32.00;94.00
45765;DHT22;31474;45.332;10.230;2023-06-22T08:20:32;32.10;94.10
45765;DHT22;31474;45.332;10.230;2023-06-22T08:22:58;32.00;93.90
45765;DHT22;31474;45.332;10.230;2023-06-22T08:25:30;32.00;93.70
45765;DHT22;31474;45.332;10.230;2023-06-22T08:27:56;32.20;93.80
45765;DHT22;31474;45.332;10.230;2023-06-22T08:30:21;32.20;93.50
45765;DHT22;31474;45.332;10.230;2023-06-22T08:32:47;32.40;93.90
45765;DHT22;31474;45.332;10.230;2023-06-22T08:35:13;32.40;93.90
45765;DHT22;31474;45.332;10.230;2023-06-22T08:37:38;32.40;93.30
45765;DHT22;31474;45.332;10.230;2023-06-22T08:40:08;32.50;93.90
45765;DHT22;31474;45.332;10.230;2023-06-22T08:42:37;32.70;93.40
45765;DHT22;31474;45.332;10.230;2023-06-22T08:45:03;32.50;93.10
45765;DHT22;31474;45.332;10.230;2023-06-22T08:47:29;32.40;93.30
45765;DHT22;31474;45.332;10.230;2023-06-22T08:49:55;32.10;93.50
45765;DHT22;31474;45.332;10.230;2023-06-22T08:52:20;31.90;93.60
45765;DHT22;31474;45.332;10.230;2023-06-22T08:54:49;31.80;93.60
45765;DHT22;31474;45.332;10.230;2023-06-22T08:57:15;31.60;93.40
45765;DHT22;31474;45.332;10.230;2023-06-22T08:59:41;31.70;93.50
45765;DHT22;31474;45.332;10.230;2023-06-22T09:02:07;31.60;93.00
45765;DHT22;31474;45.332;10.230;2023-06-22T09:04:33;31.60;93.40
45765;DHT22;31474;45.332;10.230;2023-06-22T09:07:02;31.50;93.20
45765;DHT22;31474;45.332;10.230;2023-06-22T09:09:28;31.60;92.80
45765;DHT22;31474;45.332;10.230;2023-06-22T09:11:54;31.40;93.00
45765;DHT22;31474;45.332;10.230;2023-06-22T09:14:19;31.60;93.10
45765;DHT22;31474;45.332;10.230;2023-06-22T09:16:45;31.80;93.20
45765;DHT22;31474;45.332;10.230;2023-06-22T09:19:11;31.80;91.80
45765;DHT22;31474;45.332;10.230;2023-06-22T09:21:37;31.90;92.00
45765;DHT22;31474;45.332;10.230;2023-06-22T09:24:03;31.80;91.80
45765;DHT22;31474;45.332;10.230;2023-06-22T09:26:29;31.70;92.20
45765;DHT22;31474;45.332;10.230;2023-06-22T09:28:55;31.80;92.90
45765;DHT22;31474;45.332;10.230;2023-06-22T09:31:21;32.10;92.50
45765;DHT22;31474;45.332;10.230;2023-06-22T09:33:53;32.20;92.60
45765;DHT22;31474;45.332;10.230;2023-06-22T09:36:22;32.40;92.40
45765;DHT22;31474;45.332;10.230;2023-06-22T09:38:49;32.40;92.30
45765;DHT22;31474;45.332;10.230;2023-06-22T09:41:20;32.40;92.50
45765;DHT22;31474;45.332;10.230;2023-06-22T09:43:46;32.60;92.40
45765;DHT22;31474;45.332;10.230;2023-06-22T09:46:11;32.50;91.50
45765;DHT22;31474;45.332;10.230;2023-06-22T09:48:37;32.60;92.20
45765;DHT22;31474;45.332;10.230;2023-06-22T09:51:03;32.70;92.50
45765;DHT22;31474;45.332;10.230;2023-06-22T09:53:28;32.80;92.30
45765;DHT22;31474;45.332;10.230;2023-06-22T09:55:54;32.90;92.20
45765;DHT22;31474;45.332;10.230;2023-06-22T09:58:20;33.00;92.40
45765;DHT22;31474;45.332;10.230;2023-06-22T10:00:46;32.90;92.00
45765;DHT22;31474;45.332;10.230;2023-06-22T10:03:11;32.80;91.70
45765;DHT22;31474;45.332;10.230;2023-06-22T10:05:37;32.90;92.00
45765;DHT22;31474;45.332;10.230;2023-06-22T10:08:03;33.00;93.00
45765;DHT22;31474;45.332;10.230;2023-06-22T10:10:29;33.30;92.90
45765;DHT22;31474;45.332;10.230;2023-06-22T10:12:56;33.40;92.70
45765;DHT22;31474;45.332;10.230;2023-06-22T10:15:22;33.50;92.50
45765;DHT22;31474;45.332;10.230;2023-06-22T10:17:48;33.50;92.60
45765;DHT22;31474;45.332;10.230;2023-06-22T10:20:14;33.60;92.20
45765;DHT22;31474;45.332;10.230;2023-06-22T10:22:44;33.60;92.00
45765;DHT22;31474;45.332;10.230;2023-06-22T10:25:11;33.70;91.70
45765;DHT22;31474;45.332;10.230;2023-06-22T10:27:37;33.70;91.40
45765;DHT22;31474;45.332;10.230;2023-06-22T10:30:06;33.70;91.70
45765;DHT22;31474;45.332;10.230;2023-06-22T10:32:32;33.60;91.30
45765;DHT22;31474;45.332;10.230;2023-06-22T10:34:58;33.70;92.00
45765;DHT22;31474;45.332;10.230;2023-06-22T10:37:24;33.80;92.10
45765;DHT22;31474;45.332;10.230;2023-06-22T10:39:49;33.80;92.10
45765;DHT22;31474;45.332;10.230;2023-06-22T10:42:15;33.90;92.10
45765;DHT22;31474;45.332;10.230;2023-06-22T10:44:41;33.90;91.40
45765;DHT22;31474;45.332;10.230;2023-06-22T10:47:08;33.90;91.40
45765;DHT22;31474;45.332;10.230;2023-06-22T10:49:34;33.90;91.80
45765;DHT22;31474;45.332;10.230;2023-06-22T10:52:00;33.90;91.70
45765;DHT22;31474;45.332;10.230;2023-06-22T10:54:25;33.90;92.00
45765;DHT22;31474;45.332;10.230;2023-06-22T10:56:51;33.90;91.30
45765;DHT22;31474;45.332;10.230;2023-06-22T10:59:16;34.00;92.40
45765;DHT22;31474;45.332;10.230;2023-06-22T11:01:42;34.10;91.90
45765;DHT22;31474;45.332;10.230;2023-06-22T11:04:08;34.10;92.30
45765;DHT22;31474;45.332;10.230;2023-06-22T11:06:33;34.20;92.50
45765;DHT22;31474;45.332;10.230;2023-06-22T11:08:59;34.40;92.60
45765;DHT22;31474;45.332;10.230;2023-06-22T11:11:26;34.30;91.80
45765;DHT22;31474;45.332;10.230;2023-06-22T11:13:52;34.40;91.90
45765;DHT22;31474;45.332;10.230;2023-06-22T11:16:18;34.40;92.30
45765;DHT22;31474;45.332;10.230;2023-06-22T11:18:44;34.50;91.80
45765;DHT22;31474;45.332;10.230;2023-06-22T11:21:09;34.40;91.30
45765;DHT22;31474;45.332;10.230;2023-06-22T11:23:35;34.20;90.90
45765;DHT22;31474;45.332;10.230;2023-06-22T11:26:01;34.10;91.20
45765;DHT22;31474;45.332;10.230;2023-06-22T11:28:27;33.90;91.30
45765;DHT22;31474;45.332;10.230;2023-06-22T11:30:53;34.00;91.20
45765;DHT22;31474;45.332;10.230;2023-06-22T11:33:18;34.00;90.90
45765;DHT22;31474;45.332;10.230;2023-06-22T11:35:44;34.00;91.10
45765;DHT22;31474;45.332;10.230;2023-06-22T11:38:10;34.00;90.40
45765;DHT22;31474;45.332;10.230;2023-06-22T11:40:36;34.00;90.80
45765;DHT22;31474;45.332;10.230;2023-06-22T11:43:01;33.90;90.00
45765;DHT22;31474;45.332;10.230;2023-06-22T11:45:27;34.00;90.60
45765;DHT22;31474;45.332;10.230;2023-06-22T11:47:53;33.80;90.10
45765;DHT22;31474;45.332;10.230;2023-06-22T11:50:18;33.70;89.80
45765;DHT22;31474;45.332;10.230;2023-06-22T11:52:44;33.60;89.60
45765;DHT22;31474;45.332;10.230;2023-06-22T11:55:10;33.70;90.20
45765;DHT22;31474;45.332;10.230;2023-06-22T11:57:36;33.60;89.10
45765;DHT22;31474;45.332;10.230;2023-06-22T12:00:04;33.50;90.10
45765;DHT22;31474;45.332;10.230;2023-06-22T12:02:50;33.50;90.10
45765;DHT22;31474;45.332;10.230;2023-06-22T12:05:17;33.40;90.50
45765;DHT22;31474;45.332;10.230;2023-06-22T12:07:43;33.50;90.30
45765;DHT22;31474;45.332;10.230;2023-06-22T12:10:09;33.60;90.30
45765;DHT22;31474;45.332;10.230;2023-06-22T12:12:35;33.80;90.70
45765;DHT22;31474;45.332;10.230;2023-06-22T12:15:00;33.80;91.00
45765;DHT22;31474;45.332;10.230;2023-06-22T12:17:29;33.80;90.70
45765;DHT22;31474;45.332;10.230;2023-06-22T12:19:55;33.70;90.70
45765;DHT22;31474;45.332;10.230;2023-06-22T12:22:21;33.60;91.20
45765;DHT22;31474;45.332;10.230;2023-06-22T12:24:46;33.80;91.10
45765;DHT22;31474;45.332;10.230;2023-06-22T12:27:12;33.80;91.00
45765;DHT22;31474;45.332;10.230;2023-06-22T12:29:38;33.90;91.20
45765;DHT22;31474;45.332;10.230;2023-06-22T12:32:04;33.90;90.90
45765;DHT22;31474;45.332;10.230;2023-06-22T12:34:30;34.00;90.80
45765;DHT22;31474;45.332;10.230;2023-06-22T12:36:55;34.00;90.70
45765;DHT22;31474;45.332;10.230;2023-06-22T12:39:21;34.00;90.30
45765;DHT22;31474;45.332;10.230;2023-06-22T12:41:46;33.90;90.30
45765;DHT22;31474;45.332;10.230;2023-06-22T12:44:12;33.90;90.70
45765;DHT22;31474;45.332;10.230;2023-06-22T12:46:38;33.90;90.60
45765;DHT22;31474;45.332;10.230;2023-06-22T12:49:04;33.90;90.60
45765;DHT22;31474;45.332;10.230;2023-06-22T12:51:30;34.00;90.50
45765;DHT22;31474;45.332;10.230;2023-06-22T12:53:56;34.00;90.50
45765;DHT22;31474;45.332;10.230;2023-06-22T12:56:22;34.20;90.80
45765;DHT22;31474;45.332;10.230;2023-06-22T12:58:48;34.40;91.10
45765;DHT22;31474;45.332;10.230;2023-06-22T13:01:14;34.50;90.30
45765;DHT22;31474;45.332;10.230;2023-06-22T13:03:41;34.40;90.10
45765;DHT22;31474;45.332;10.230;2023-06-22T13:06:07;34.50;90.10
45765;DHT22;31474;45.332;10.230;2023-06-22T13:08:32;34.40;90.00
45765;DHT22;31474;45.332;10.230;2023-06-22T13:10:58;34.20;88.60
45765;DHT22;31474;45.332;10.230;2023-06-22T13:13:25;34.20;90.10
45765;DHT22;31474;45.332;10.230;2023-06-22T13:15:52;34.20;90.20
45765;DHT22;31474;45.332;10.230;2023-06-22T13:18:18;34.30;90.20
45765;DHT22;31474;45.332;10.230;2023-06-22T13:20:44;34.30;90.00
45765;DHT22;31474;45.332;10.230;2023-06-22T13:23:11;34.20;90.00
45765;DHT22;31474;45.332;10.230;2023-06-22T13:25:36;34.30;90.10
45765;DHT22;31474;45.332;10.230;2023-06-22T13:28:02;34.50;90.10
45765;DHT22;31474;45.332;10.230;2023-06-22T13:30:28;34.30;90.00
45765;DHT22;31474;45.332;10.230;2023-06-22T13:32:53;34.30;90.00
45765;DHT22;31474;45.332;10.230;2023-06-22T13:35:19;34.30;90.00
45765;DHT22;31474;45.332;10.230;2023-06-22T13:37:45;34.30;90.90
45765;DHT22;31474;45.332;10.230;2023-06-22T13:40:10;34.30;90.60
45765;DHT22;31474;45.332;10.230;2023-06-22T13:42:36;34.20;89.80
45765;DHT22;31474;45.332;10.230;2023-06-22T13:45:03;34.10;89.50
45765;DHT22;31474;45.332;10.230;2023-06-22T13:47:29;34.20;90.20
45765;DHT22;31474;45.332;10.230;2023-06-22T13:49:55;34.20;90.00
45765;DHT22;31474;45.332;10.230;2023-06-22T13:52:21;34.20;88.90
45765;DHT22;31474;45.332;10.230;2023-06-22T13:54:46;34.00;89.30
45765;DHT22;31474;45.332;10.230;2023-06-22T13:57:12;34.00;89.50
45765;DHT22;31474;45.332;10.230;2023-06-22T13:59:38;33.90;90.00
45765;DHT22;31474;45.332;10.230;2023-06-22T14:02:04;33.90;90.10
45765;DHT22;31474;45.332;10.230;2023-06-22T14:04:29;33.80;89.50
45765;DHT22;31474;45.332;10.230;2023-06-22T14:06:55;33.80;89.90
45765;DHT22;31474;45.332;10.230;2023-06-22T14:09:21;33.70;90.10
45765;DHT22;31474;45.332;10.230;2023-06-22T14:11:47;33.70;90.20
45765;DHT22;31474;45.332;10.230;2023-06-22T14:14:12;33.70;90.50
45765;DHT22;31474;45.332;10.230;2023-06-22T14:16:38;33.60;89.80
45765;DHT22;31474;45.332;10.230;2023-06-22T14:19:04;33.50;89.60
45765;DHT22;31474;45.332;10.230;2023-06-22T14:21:29;33.50;88.10
45765;DHT22;31474;45.332;10.230;2023-06-22T14:23:55;33.50;89.40
45765;DHT22;31474;45.332;10.230;2023-06-22T14:26:21;33.50;88.90
45765;DHT22;31474;45.332;10.230;2023-06-22T14:28:47;33.50;89.10
45765;DHT22;31474;45.332;10.230;2023-06-22T14:31:16;33.60;89.40
45765;DHT22;31474;45.332;10.230;2023-06-22T14:33:45;33.60;90.00
45765;DHT22;31474;45.332;10.230;2023-06-22T14:36:11;33.60;87.90
45765;DHT22;31474;45.332;10.230;2023-06-22T14:38:37;33.60;89.10
45765;DHT22;31474;45.332;10.230;2023-06-22T14:41:02;33.60;89.30
45765;DHT22;31474;45.332;10.230;2023-06-22T14:43:28;33.60;89.70
45765;DHT22;31474;45.332;10.230;2023-06-22T14:45:54;33.60;90.10
45765;DHT22;31474;45.332;10.230;2023-06-22T14:48:19;33.70;90.30
45765;DHT22;31474;45.332;10.230;2023-06-22T14:50:45;33.80;90.30
45765;DHT22;31474;45.332;10.230;2023-06-22T14:53:10;33.80;90.50
45765;DHT22;31474;45.332;10.230;2023-06-22T14:55:36;33.90;90.40
45765;DHT22;31474;45.332;10.230;2023-06-22T14:58:02;33.80;90.00
45765;DHT22;31474;45.332;10.230;2023-06-22T15:00:27;33.80;90.20
45765;DHT22;31474;45.332;10.230;2023-06-22T15:02:53;33.70;90.30
45765;DHT22;31474;45.332;10.230;2023-06-22T15:05:19;33.60;90.10
45765;DHT22;31474;45.332;10.230;2023-06-22T15:07:44;33.60;90.30
45765;DHT22;31474;45.332;10.230;2023-06-22T15:10:10;33.60;90.30
45765;DHT22;31474;45.332;10.230;2023-06-22T15:12:36;33.60;90.40
45765;DHT22;31474;45.332;10.230;2023-06-22T15:15:02;33.60;90.20